Axtell, Texas
Current Conditions -  °F | °C
As of 6:55 PM on Wednesday 22 Oct 2014 (Local Time) from KCNW Reporting Station
Clear Clear  
Wind Chill: 73°   Ceiling: Unl
Heat Index: 73°   Visibility: 10mi
Dew Point: 59°   Wind: 0mph
Humidity: 61%   Direction: NA
Pressure: 30.08"   Gusts: NA
Location:  31.66°N, 96.97°W
Report Text: KCNW 222355Z 00000KT 10SM SKC 23/15 A3008
Loading
Personal Weather Stations






























Interactive Weather Map
Tropical Storm Tracking
New forecast layout! Learn more

10-Day Weather Forecast

Advertisements
Track Severe Weather on mobile